map of YKL home
YKL - Airport
Location
City:  Schefferville, Québec, Canada
Name:Schefferville Airport
ICAO:CYKL
IATA:YKL

Details
Type:Airport (Airfield)
Use:Public/Civil
Latitude:54°48'19"N (54.805278)
Longitude:66°48'19"W (-66.805277)
Elevation:1709 ft (521 m)
Variation:20.55°W (WMM2015v2 magnetic declination)
0.24° annual change
Runways:1
Longest:5002 ft (1525 m), paved

Time
Time Zone:UTC-5 (DST-4)
Local Time:

Weather
METAR:CYKL 041415Z AUTO 32005KT 8SM CLR M21/M24 A2968 RMK SLP114
TAF:CYKL 041341Z 0414/0502 VRB03KT P6SM SCT160
TEMPO 0414/0415 BKN020
FM041500 31007KT P6SM FEW020
RMK FCST BASED ON AUTO OBS. NXT FCST BY 042000Z

Related Locations
Nearby:
Farthest:YWKS: 11605 mi / 18677 km
Wilkins Runway (Casey), Upper Peterson Glacier, AQ

Find:

   beyond  
but within

Other Information
Maps:
NOTAMs:
Links:
Sources:

  
  • flag of Canada
  • flag of Québec
  

Airport Diagram

Airport diagram for YKL

Airport diagram PDF

Sectional Chart

Flight Planning
at skyvector.com

Satellite Image

Google Maps Satellite view

 

Copyright © 2004-2019 Karl L. Swartz. All rights reserved.
The Great Circle Mapper name and logo are trademarks of the Great Circle Mapper.
All other trademarks mentioned herein belong to their respective owners.
Please see credits for attibutions and further copyright information.

  Follow gcmap on Facebook Follow gcmap on Twitter GCmap on LinkedIn

hCard Microformat

Geo Microformat